createdAt,value
2023-02-20T00:01:56.855Z,99570.66
2023-02-20T00:04:26.587Z,99567.44
2023-02-20T00:06:53.153Z,99560.66
2023-02-20T00:09:19.695Z,99564.63
2023-02-20T00:11:47.038Z,99577.81
2023-02-20T00:14:13.671Z,99569.63
2023-02-20T00:16:40.242Z,99578.06
2023-02-20T00:19:06.661Z,99579.28
2023-02-20T00:21:33.162Z,99582.31
2023-02-20T00:26:26.286Z,99581.56
2023-02-20T00:28:52.838Z,99579.31
2023-02-20T00:31:20.048Z,99576.16
2023-02-20T00:33:46.804Z,99574.94
2023-02-20T00:36:20.707Z,99575.72
2023-02-20T00:38:49.808Z,99571.66
2023-02-20T00:41:17.768Z,99580.28
2023-02-20T00:43:44.482Z,99576.44
2023-02-20T00:46:13.369Z,99574.88
2023-02-20T00:48:40.813Z,99572.72
2023-02-20T00:51:07.265Z,99568.50
2023-02-20T00:53:34.031Z,99566.75
2023-02-20T00:58:26.878Z,99567.34
2023-02-20T01:00:53.574Z,99562.81
2023-02-20T01:03:20.056Z,99568.19
2023-02-20T01:05:46.536Z,99569.06
2023-02-20T01:08:13.029Z,99565.41
2023-02-20T01:10:39.532Z,99567.41
2023-02-20T01:13:06.058Z,99565.66
2023-02-20T01:15:32.571Z,99564.25
2023-02-20T01:20:25.486Z,99575.13
2023-02-20T01:22:52.053Z,99573.44
2023-02-20T01:25:18.843Z,99566.28
2023-02-20T01:27:45.287Z,99564.41
2023-02-20T01:30:11.942Z,99565.53
2023-02-20T01:32:39.190Z,99565.84
2023-02-20T01:35:06.314Z,99561.66
2023-02-20T01:37:32.832Z,99580.06
2023-02-20T01:42:30.006Z,99576.09
2023-02-20T01:45:15.200Z,99567.59
2023-02-20T01:47:41.750Z,99566.53
2023-02-20T01:50:09.824Z,99552.38
2023-02-20T01:52:39.165Z,99559.78
2023-02-20T01:57:41.012Z,99546.44
2023-02-20T02:00:11.989Z,99543.59
2023-02-20T02:02:44.309Z,99545.91
2023-02-20T02:05:11.934Z,99553.91
2023-02-20T02:07:39.272Z,99551.81
2023-02-20T02:10:13.147Z,99547.34
2023-02-20T02:12:40.332Z,99544.75
2023-02-20T02:15:18.216Z,99552.50
2023-02-20T02:17:53.433Z,99556.28
2023-02-20T02:20:22.747Z,99557.63
2023-02-20T02:23:26.115Z,99562.59
2023-02-20T02:25:55.536Z,99555.53
2023-02-20T02:28:36.896Z,99554.78
2023-02-20T02:31:22.173Z,99551.19
2023-02-20T02:33:57.538Z,99547.41
2023-02-20T02:37:05.812Z,99549.91
2023-02-20T02:39:38.490Z,99542.72
2023-02-20T02:42:33.766Z,99533.53
2023-02-20T02:45:30.547Z,99526.41
2023-02-20T02:48:06.812Z,99530.59
2023-02-20T02:50:36.951Z,99520.84
2023-02-20T02:53:04.639Z,99521.78
2023-02-20T02:55:35.372Z,99512.88
2023-02-20T02:58:03.926Z,99521.34
2023-02-20T03:00:41.957Z,99507.50
2023-02-20T03:03:23.697Z,99519.94
2023-02-20T03:05:50.086Z,99523.41
2023-02-20T03:08:33.316Z,99533.84
2023-02-20T03:11:03.750Z,99529.03
2023-02-20T03:14:02.624Z,99531.94
2023-02-20T03:16:38.769Z,99519.53
2023-02-20T03:19:09.855Z,99519.16
2023-02-20T03:21:37.201Z,99522.97
2023-02-20T03:24:05.138Z,99527.53
2023-02-20T03:26:36.058Z,99541.56
2023-02-20T03:29:24.810Z,99543.25
2023-02-20T03:32:18.871Z,99535.53
2023-02-20T03:35:07.169Z,99532.19
2023-02-20T03:37:54.940Z,99533.19
2023-02-20T03:40:41.736Z,99532.59
2023-02-20T03:43:27.770Z,99543.13
2023-02-20T03:46:08.623Z,99546.66
2023-02-20T03:48:42.766Z,99546.66
2023-02-20T03:51:14.089Z,99542.00
2023-02-20T03:53:42.537Z,99526.22
2023-02-20T03:56:14.245Z,99518.31
2023-02-20T03:58:45.537Z,99523.13
2023-02-20T04:01:15.678Z,99533.38
2023-02-20T04:03:47.463Z,99525.00
2023-02-20T04:06:16.128Z,99533.84
2023-02-20T04:09:07.060Z,99539.81
2023-02-20T04:11:39.337Z,99530.91
2023-02-20T04:14:07.457Z,99533.84
2023-02-20T04:16:43.268Z,99528.75
2023-02-20T04:19:09.916Z,99531.16
2023-02-20T04:21:43.362Z,99528.94
2023-02-20T04:24:16.039Z,99536.78
2023-02-20T04:26:42.827Z,99531.19
2023-02-20T04:29:09.659Z,99522.41
2023-02-20T04:31:36.124Z,99522.69
2023-02-20T04:34:02.587Z,99513.34
2023-02-20T04:36:29.186Z,99521.59
2023-02-20T04:38:55.635Z,99528.53
2023-02-20T04:41:22.944Z,99531.72
2023-02-20T04:46:16.669Z,99539.94
2023-02-20T04:48:43.243Z,99531.19
2023-02-20T04:53:37.250Z,99537.19
2023-02-20T04:56:03.862Z,99530.59
2023-02-20T04:58:30.308Z,99545.03
2023-02-20T05:00:56.733Z,99540.84
2023-02-20T05:03:23.165Z,99548.03
2023-02-20T05:05:49.594Z,99537.38
2023-02-20T05:08:16.076Z,99545.63
2023-02-20T05:10:42.628Z,99551.25
2023-02-20T05:13:09.077Z,99548.00
2023-02-20T05:15:35.599Z,99553.53
2023-02-20T05:18:02.028Z,99561.00
2023-02-20T05:20:47.318Z,99554.44
2023-02-20T05:23:13.839Z,99555.34
2023-02-20T05:25:40.396Z,99566.94
2023-02-20T05:28:06.869Z,99559.97
2023-02-20T05:30:33.488Z,99568.72
2023-02-20T05:35:26.388Z,99571.53
2023-02-20T05:37:52.849Z,99582.13
2023-02-20T05:40:19.289Z,99581.94
2023-02-20T05:42:45.725Z,99591.75
2023-02-20T05:45:12.287Z,99587.91
2023-02-20T05:47:38.846Z,99590.09
2023-02-20T05:50:06.438Z,99593.31
2023-02-20T05:52:33.013Z,99590.03
2023-02-20T05:57:26.038Z,99584.88
2023-02-20T05:59:52.534Z,99588.00
2023-02-20T06:02:18.932Z,99585.56
2023-02-20T06:07:11.893Z,99572.38
2023-02-20T06:09:42.684Z,99582.78
2023-02-20T06:14:35.628Z,99575.97
2023-02-20T06:17:02.148Z,99575.16
2023-02-20T06:19:28.614Z,99575.72
2023-02-20T06:21:55.481Z,99590.53
2023-02-20T06:24:22.033Z,99599.38
2023-02-20T06:26:48.700Z,99595.44
2023-02-20T06:29:16.271Z,99603.34
2023-02-20T06:31:43.075Z,99598.03
2023-02-20T06:34:10.707Z,99594.19
2023-02-20T06:36:39.954Z,99601.13
2023-02-20T06:41:34.870Z,99598.34
2023-02-20T06:44:01.372Z,99600.13
2023-02-20T06:46:27.850Z,99599.59
2023-02-20T06:48:57.092Z,99610.59
2023-02-20T06:51:26.292Z,99601.13
2023-02-20T06:53:53.020Z,99606.06
2023-02-20T06:56:23.201Z,99604.47
2023-02-20T06:58:52.168Z,99607.81
2023-02-20T07:01:20.319Z,99618.28
2023-02-20T07:03:50.470Z,99611.88
2023-02-20T07:06:17.407Z,99614.25
2023-02-20T07:08:44.132Z,99612.13
2023-02-20T07:11:13.071Z,99604.75
2023-02-20T07:13:39.987Z,99607.75
2023-02-20T07:18:38.373Z,99600.84
2023-02-20T07:21:05.579Z,99604.78
2023-02-20T07:23:32.600Z,99596.06
2023-02-20T07:25:59.197Z,99590.97
2023-02-20T07:28:25.611Z,99592.25
2023-02-20T07:30:52.110Z,99598.88
2023-02-20T07:33:19.186Z,99595.00
2023-02-20T07:35:45.850Z,99610.28
2023-02-20T07:38:13.040Z,99603.66
2023-02-20T07:40:40.174Z,99610.34
2023-02-20T07:43:07.098Z,99621.78
2023-02-20T07:45:35.831Z,99626.19
2023-02-20T07:48:02.588Z,99609.66
2023-02-20T07:50:29.147Z,99597.38
2023-02-20T07:52:55.677Z,99584.31
2023-02-20T07:55:22.213Z,99563.22
2023-02-20T07:57:50.409Z,99555.63
2023-02-20T08:00:18.636Z,99585.19
2023-02-20T08:02:47.646Z,99587.78
2023-02-20T08:05:14.470Z,99582.47
2023-02-20T08:07:50.326Z,99566.50
2023-02-20T08:10:21.263Z,99554.91
2023-02-20T08:12:48.787Z,99564.28
2023-02-20T08:15:15.815Z,99573.09
2023-02-20T08:17:47.180Z,99588.88
2023-02-20T08:20:17.706Z,99585.19
2023-02-20T08:22:45.405Z,99589.31
2023-02-20T08:25:12.277Z,99572.16
2023-02-20T08:27:46.120Z,99573.84
2023-02-20T08:32:47.646Z,99570.38
2023-02-20T08:37:40.611Z,99577.47
2023-02-20T08:40:08.824Z,99564.25
2023-02-20T08:42:35.555Z,99556.38
2023-02-20T08:45:08.387Z,99550.41
2023-02-20T08:47:35.647Z,99557.69
2023-02-20T08:50:03.664Z,99553.81
2023-02-20T08:52:30.938Z,99553.63
2023-02-20T08:57:24.033Z,99553.00
2023-02-20T08:59:50.421Z,99543.81
2023-02-20T09:02:19.877Z,99537.91
2023-02-20T09:04:46.957Z,99540.56
2023-02-20T09:09:45.900Z,99534.50
2023-02-20T09:19:33.243Z,99514.66
2023-02-20T09:22:03.263Z,99513.97
2023-02-20T09:27:20.900Z,99506.78
2023-02-20T09:29:47.526Z,99514.38
2023-02-20T09:34:41.470Z,99486.53
2023-02-20T09:39:35.147Z,99502.78
2023-02-20T09:42:15.755Z,99498.34
2023-02-20T09:44:51.471Z,99495.84
2023-02-20T09:47:28.460Z,99480.91
2023-02-20T09:50:02.935Z,99480.72
2023-02-20T09:52:34.371Z,99474.75
2023-02-20T09:55:06.299Z,99468.53
2023-02-20T09:57:36.689Z,99473.94
2023-02-20T10:02:53.927Z,99469.47
2023-02-20T10:05:24.097Z,99473.13
2023-02-20T10:07:52.354Z,99465.56
2023-02-20T10:10:21.780Z,99468.78
2023-02-20T10:13:00.764Z,99456.31
2023-02-20T10:15:46.518Z,99472.09
2023-02-20T10:18:27.007Z,99461.22
2023-02-20T10:21:12.401Z,99465.75
2023-02-20T10:24:03.764Z,99450.06
2023-02-20T10:26:40.148Z,99455.78
2023-02-20T10:29:22.822Z,99453.09
2023-02-20T10:32:00.539Z,99442.22
2023-02-20T10:34:45.350Z,99442.69
2023-02-20T10:37:15.636Z,99444.25
2023-02-20T10:39:52.475Z,99439.34
2023-02-20T10:42:33.741Z,99442.09
2023-02-20T10:45:14.516Z,99443.88
2023-02-20T10:47:59.508Z,99432.75
2023-02-20T10:50:39.235Z,99432.56
2023-02-20T10:53:33.680Z,99425.97
2023-02-20T10:56:21.225Z,99418.81
2023-02-20T10:59:12.494Z,99407.50
2023-02-20T11:01:40.446Z,99411.28
2023-02-20T11:04:22.702Z,99401.19
2023-02-20T11:07:02.301Z,99393.13
2023-02-20T11:09:29.190Z,99396.91
2023-02-20T11:11:56.444Z,99380.41
2023-02-20T11:14:45.199Z,99371.38
2023-02-20T11:17:20.691Z,99367.38
2023-02-20T11:19:48.044Z,99368.91
2023-02-20T11:22:16.296Z,99366.91
2023-02-20T11:24:44.752Z,99352.41
2023-02-20T11:27:25.361Z,99351.03
2023-02-20T11:30:22.281Z,99345.53
2023-02-20T11:32:49.420Z,99338.25
2023-02-20T11:35:23.706Z,99336.38
2023-02-20T11:38:10.527Z,99337.44
2023-02-20T11:40:37.402Z,99333.03
2023-02-20T11:43:15.910Z,99324.03
2023-02-20T11:45:42.533Z,99331.19
2023-02-20T11:48:18.078Z,99326.44
2023-02-20T11:50:53.513Z,99334.97
2023-02-20T11:53:30.285Z,99326.38
2023-02-20T11:56:14.833Z,99318.25
2023-02-20T11:58:42.779Z,99322.47
2023-02-20T12:01:31.740Z,99299.50
2023-02-20T12:06:41.511Z,99291.16
2023-02-20T12:11:48.799Z,99278.50
2023-02-20T12:14:15.968Z,99269.06
2023-02-20T12:17:01.043Z,99267.78
2023-02-20T12:19:36.699Z,99251.69
2023-02-20T12:22:27.366Z,99259.66
2023-02-20T12:25:19.896Z,99257.84
2023-02-20T12:30:38.278Z,99245.41
2023-02-20T12:33:09.688Z,99250.25
2023-02-20T12:35:50.651Z,99246.13
2023-02-20T12:38:23.112Z,99252.72
2023-02-20T12:43:49.025Z,99248.38
2023-02-20T12:46:25.505Z,99240.88
2023-02-20T12:51:50.801Z,99234.03
2023-02-20T12:54:30.416Z,99234.38
2023-02-20T12:59:46.140Z,99232.63
2023-02-20T13:02:23.600Z,99225.78
2023-02-20T13:05:02.146Z,99223.38
2023-02-20T13:07:39.051Z,99204.78
2023-02-20T13:10:20.584Z,99217.69
2023-02-20T13:12:50.432Z,99212.50
2023-02-20T13:15:47.328Z,99205.94
2023-02-20T13:18:23.225Z,99208.28
2023-02-20T13:21:01.861Z,99205.00
2023-02-20T13:23:33.604Z,99199.00
2023-02-20T13:26:00.644Z,99198.19
2023-02-20T13:28:36.934Z,99194.63
2023-02-20T13:33:50.258Z,99178.53
2023-02-20T13:36:27.866Z,99179.22
2023-02-20T13:39:19.300Z,99174.78
2023-02-20T13:41:57.960Z,99185.91
2023-02-20T13:44:36.417Z,99185.16
2023-02-20T13:47:34.753Z,99171.09
2023-02-20T13:50:05.169Z,99166.25
2023-02-20T13:52:44.951Z,99164.66
2023-02-20T13:55:18.405Z,99164.84
2023-02-20T13:57:49.321Z,99157.41
2023-02-20T14:00:26.943Z,99166.56
2023-02-20T14:05:31.424Z,99145.94
2023-02-20T14:10:33.652Z,99147.66
2023-02-20T14:15:51.296Z,99145.81
2023-02-20T14:18:26.069Z,99145.09
2023-02-20T14:21:21.483Z,99141.75
2023-02-20T14:23:49.841Z,99144.19
2023-02-20T14:26:32.091Z,99132.00
2023-02-20T14:29:21.680Z,99128.38
2023-02-20T14:34:51.749Z,99104.59
2023-02-20T14:37:33.561Z,99102.69
2023-02-20T14:40:12.267Z,99092.88
2023-02-20T14:42:44.130Z,99099.34
2023-02-20T14:45:24.906Z,99088.59
2023-02-20T14:50:30.297Z,99085.66
2023-02-20T14:55:49.561Z,99070.13
2023-02-20T14:58:21.147Z,99072.84
2023-02-20T15:00:49.657Z,99069.06
2023-02-20T15:03:30.998Z,99058.44
2023-02-20T15:06:06.082Z,99056.06
2023-02-20T15:08:36.049Z,99054.63
2023-02-20T15:11:13.803Z,99056.22
2023-02-20T15:13:43.934Z,99054.38
2023-02-20T15:16:16.959Z,99066.22
2023-02-20T15:18:49.887Z,99066.81
2023-02-20T15:21:37.739Z,99062.47
2023-02-20T15:24:25.799Z,99052.78
2023-02-20T15:27:24.534Z,99065.09
2023-02-20T15:30:15.453Z,99054.25
2023-02-20T15:32:50.554Z,99060.66
2023-02-20T15:42:57.526Z,99061.25
2023-02-20T15:45:32.428Z,99059.53
2023-02-20T15:48:00.044Z,99056.75
2023-02-20T15:52:55.638Z,99062.06
2023-02-20T15:58:08.751Z,99041.59
2023-02-20T16:00:37.993Z,99046.84
2023-02-20T16:03:04.897Z,99047.97
2023-02-20T16:05:32.028Z,99057.69
2023-02-20T16:08:04.679Z,99058.44
2023-02-20T16:13:01.389Z,99046.50
2023-02-20T16:17:57.114Z,99043.09
2023-02-20T16:20:29.782Z,99040.78
2023-02-20T16:22:56.913Z,99044.34
2023-02-20T16:25:25.132Z,99048.00
2023-02-20T16:27:54.249Z,99042.44
2023-02-20T16:30:34.211Z,99042.31
2023-02-20T16:33:23.034Z,99035.00
2023-02-20T16:35:54.181Z,99044.38
2023-02-20T16:38:26.860Z,99040.97
2023-02-20T16:43:27.149Z,99054.66
2023-02-20T16:45:53.782Z,99052.72
2023-02-20T16:48:24.647Z,99047.69
2023-02-20T16:50:53.841Z,99052.59
2023-02-20T16:53:37.428Z,99039.03
2023-02-20T16:56:04.282Z,99039.91
2023-02-20T16:58:30.946Z,99034.56
2023-02-20T17:00:58.395Z,99033.84
2023-02-20T17:03:27.973Z,99031.22
2023-02-20T17:05:59.748Z,99040.19
2023-02-20T17:08:27.676Z,99050.19
2023-02-20T17:10:54.581Z,99050.63
2023-02-20T17:13:21.301Z,99049.25
2023-02-20T17:15:48.269Z,99044.47
2023-02-20T17:18:15.748Z,99044.53
2023-02-20T17:23:09.318Z,99060.75
2023-02-20T17:25:36.299Z,99054.13
2023-02-20T17:28:04.771Z,99063.88
2023-02-20T17:30:31.375Z,99054.88
2023-02-20T17:32:58.098Z,99060.31
2023-02-20T17:35:24.708Z,99065.34
2023-02-20T17:37:51.384Z,99066.06
2023-02-20T17:40:18.649Z,99074.91
2023-02-20T17:42:45.386Z,99075.41
2023-02-20T17:45:12.665Z,99069.78
2023-02-20T17:50:09.130Z,99073.38
2023-02-20T17:55:02.271Z,99062.50
2023-02-20T17:57:29.341Z,99062.91
2023-02-20T18:04:54.349Z,99074.28
2023-02-20T18:07:23.101Z,99072.66
2023-02-20T18:09:49.961Z,99072.25
2023-02-20T18:12:16.747Z,99077.88
2023-02-20T18:14:45.300Z,99069.47
2023-02-20T18:17:11.973Z,99069.94
2023-02-20T18:19:45.898Z,99077.38
2023-02-20T18:22:12.806Z,99081.94
2023-02-20T18:27:06.671Z,99066.41
2023-02-20T18:29:33.549Z,99058.41
2023-02-20T18:32:00.407Z,99072.59
2023-02-20T18:34:28.472Z,99067.00
2023-02-20T18:36:55.469Z,99069.88
2023-02-20T18:39:22.349Z,99061.53
2023-02-20T18:41:54.739Z,99056.28
2023-02-20T18:44:23.377Z,99062.97
2023-02-20T18:46:50.169Z,99066.66
2023-02-20T18:49:17.476Z,99065.69
2023-02-20T18:51:44.951Z,99059.00
2023-02-20T18:54:18.142Z,99057.22
2023-02-20T18:56:49.664Z,99066.88
2023-02-20T18:59:17.010Z,99056.03
2023-02-20T19:01:44.298Z,99061.66
2023-02-20T19:04:12.942Z,99056.59
2023-02-20T19:06:46.586Z,99060.28
2023-02-20T19:11:47.960Z,99052.75
2023-02-20T19:14:14.688Z,99059.22
2023-02-20T19:16:50.961Z,99059.03
2023-02-20T19:19:24.154Z,99059.03
2023-02-20T19:21:52.252Z,99057.84
2023-02-20T19:24:21.869Z,99061.13
2023-02-20T19:26:49.817Z,99061.66
2023-02-20T19:29:16.542Z,99059.25
2023-02-20T19:31:46.416Z,99056.63
2023-02-20T19:34:14.374Z,99067.94
2023-02-20T19:36:41.998Z,99065.22
2023-02-20T19:39:09.833Z,99060.00
2023-02-20T19:41:38.097Z,99064.66
2023-02-20T19:44:05.685Z,99062.47
2023-02-20T19:46:32.440Z,99053.22
2023-02-20T19:48:59.182Z,99060.28
2023-02-20T19:51:25.832Z,99061.09
2023-02-20T19:53:52.508Z,99058.84
2023-02-20T19:56:19.509Z,99060.50
2023-02-20T19:58:46.282Z,99060.50
2023-02-20T20:01:16.002Z,99067.91
2023-02-20T20:03:48.712Z,99067.91
2023-02-20T20:06:17.943Z,99069.31
2023-02-20T20:09:09.547Z,99064.72
2023-02-20T20:11:32.493Z,99065.94
2023-02-20T20:13:59.319Z,99070.66
2023-02-20T20:16:26.133Z,99059.19
2023-02-20T20:18:53.371Z,99058.84
2023-02-20T20:21:21.011Z,99060.09
2023-02-20T20:26:15.083Z,99057.44
2023-02-20T20:28:42.099Z,99059.28
2023-02-20T20:31:08.937Z,99067.13
2023-02-20T20:36:03.252Z,99065.41
2023-02-20T20:38:30.034Z,99064.59
2023-02-20T20:40:56.853Z,99067.41
2023-02-20T20:43:23.520Z,99062.25
2023-02-20T20:45:50.409Z,99061.50
2023-02-20T20:48:19.947Z,99055.66
2023-02-20T20:50:46.958Z,99051.84
2023-02-20T20:53:16.399Z,99054.66
2023-02-20T20:55:48.565Z,99051.25
2023-02-20T20:58:15.256Z,99046.63
2023-02-20T21:00:41.997Z,99049.47
2023-02-20T21:03:10.907Z,99054.09
2023-02-20T21:05:40.464Z,99048.09
2023-02-20T21:08:08.322Z,99043.91
2023-02-20T21:10:36.581Z,99042.09
2023-02-20T21:13:03.720Z,99039.31
2023-02-20T21:15:34.439Z,99046.53
2023-02-20T21:18:01.850Z,99043.31
2023-02-20T21:20:30.810Z,99042.75
2023-02-20T21:22:59.003Z,99032.47
2023-02-20T21:25:26.434Z,99033.50
2023-02-20T21:27:55.079Z,99027.25
2023-02-20T21:30:25.804Z,99031.88
2023-02-20T21:32:52.961Z,99029.47
2023-02-20T21:35:22.258Z,99032.09
2023-02-20T21:37:49.056Z,99031.50
2023-02-20T21:40:20.741Z,99030.72
2023-02-20T21:43:05.859Z,99039.16
2023-02-20T21:45:36.490Z,99028.53
2023-02-20T21:48:07.418Z,99027.97
2023-02-20T21:50:34.335Z,99029.97
2023-02-20T21:53:02.253Z,99031.56
2023-02-20T21:55:29.619Z,99036.41
2023-02-20T21:57:56.709Z,99035.78
2023-02-20T22:00:24.235Z,99031.38
2023-02-20T22:02:51.079Z,99029.34
2023-02-20T22:05:17.635Z,99036.41
2023-02-20T22:08:05.695Z,99035.59
2023-02-20T22:10:50.765Z,99028.78
2023-02-20T22:13:36.022Z,99025.19
2023-02-20T22:16:21.512Z,99033.00
2023-02-20T22:19:06.878Z,99020.78
2023-02-20T22:21:52.018Z,99031.38
2023-02-20T22:24:39.226Z,99032.56
2023-02-20T22:27:28.288Z,99034.19
2023-02-20T22:30:13.684Z,99030.56
2023-02-20T22:32:59.043Z,99034.03
2023-02-20T22:35:44.265Z,99029.22
2023-02-20T22:38:29.925Z,99041.00
2023-02-20T22:41:15.611Z,99044.22
2023-02-20T22:44:01.021Z,99033.59
2023-02-20T22:46:46.197Z,99037.19
2023-02-20T22:49:31.692Z,99034.41
2023-02-20T22:52:16.847Z,99021.97
2023-02-20T22:55:08.080Z,99027.59
2023-02-20T22:57:53.321Z,99032.38
2023-02-20T23:00:39.107Z,99033.38
2023-02-20T23:03:26.332Z,99032.13
2023-02-20T23:06:17.839Z,99038.19
2023-02-20T23:09:03.612Z,99039.44
2023-02-20T23:11:52.348Z,99040.22
2023-02-20T23:14:37.851Z,99044.19
2023-02-20T23:17:34.863Z,99047.19
2023-02-20T23:20:25.106Z,99049.63
2023-02-20T23:23:10.883Z,99053.03
2023-02-20T23:25:56.054Z,99050.47
2023-02-20T23:28:41.328Z,99060.06
2023-02-20T23:31:26.470Z,99065.66
2023-02-20T23:34:12.148Z,99073.13
2023-02-20T23:37:03.824Z,99075.72
2023-02-20T23:39:49.125Z,99077.53
2023-02-20T23:42:36.235Z,99071.94
2023-02-20T23:45:21.870Z,99070.16
2023-02-20T23:48:07.852Z,99066.13
2023-02-20T23:50:55.023Z,99070.91
2023-02-20T23:53:40.600Z,99076.72
2023-02-20T23:56:26.116Z,99072.91
2023-02-20T23:59:10.931Z,99072.50
